Time;durP1;ratioP1;P1;durP2;ratioP2;P2;SDS_P1;SDS_P2;PMS_P1;PMS_P2;Temp;Humidity;BMP_temperature;BMP_pressure;BME280_temperature;BME280_humidity;BME280_pressure;Samples;Min_cycle;Max_cycle;Signal;HPM_P1;HPM_P2
2022/12/21 00:01:30;;;;;;;;;;;6.40;99.90;;;;;;5012482;28;20347;-79
2022/12/21 00:03:59;;;;;;;;;;;6.40;99.90;;;;;;5013191;28;19953;-79
2022/12/21 00:06:26;;;;;;;;;;;6.50;99.90;;;;;;5013082;28;19921;-79
2022/12/21 00:08:53;;;;;;;;;;;6.50;99.90;;;;;;5013509;28;19910;-79
2022/12/21 00:11:21;;;;;;;;;;;6.50;99.90;;;;;;5012341;28;19909;-81
2022/12/21 00:13:48;;;;;;;;;;;6.50;99.90;;;;;;5013021;28;19910;-77
2022/12/21 00:16:15;;;;;;;;;;;6.50;99.90;;;;;;5012858;28;20377;-78
2022/12/21 00:18:41;;;;;;;;;;;6.50;99.90;;;;;;5012782;28;19916;-78
2022/12/21 00:21:08;;;;;;;;;;;6.50;99.90;;;;;;5012842;28;19917;-78
2022/12/21 00:23:34;;;;;;;;;;;6.50;99.90;;;;;;5012650;28;20371;-77
2022/12/21 00:26:01;;;;;;;;;;;6.40;99.90;;;;;;5013075;28;19928;-79
2022/12/21 00:28:26;;;;;;;;;;;6.40;99.90;;;;;;5013039;28;19910;-79
2022/12/21 00:30:52;;;;;;;;;;;6.40;99.90;;;;;;5012355;28;19963;-79
2022/12/21 00:33:17;;;;;;;;;;;6.50;99.90;;;;;;5012908;28;19909;-80
2022/12/21 00:35:50;;;;;;;;;;;6.50;99.90;;;;;;5013059;28;20008;-79
2022/12/21 00:38:16;;;;;;;;;;;6.50;99.90;;;;;;5012502;28;19909;-79
2022/12/21 00:40:42;;;;;;;;;;;6.60;99.90;;;;;;5012719;28;19920;-79
2022/12/21 00:43:08;;;;;;;;;;;6.60;99.90;;;;;;5010608;28;19916;-78
2022/12/21 00:45:33;;;;;;;;;;;6.70;99.90;;;;;;5011804;28;19928;-79
2022/12/21 00:47:59;;;;;;;;;;;6.70;99.90;;;;;;5011975;28;20331;-77
2022/12/21 00:50:24;;;;;;;;;;;6.60;99.90;;;;;;5012449;28;19936;-78
2022/12/21 00:52:50;;;;;;;;;;;6.60;99.90;;;;;;5012169;28;19910;-78
2022/12/21 00:55:15;;;;;;;;;;;6.60;99.90;;;;;;5012338;28;19910;-78
2022/12/21 00:57:41;;;;;;;;;;;6.60;99.90;;;;;;5010567;28;20414;-78
2022/12/21 01:00:07;;;;;;;;;;;6.60;99.90;;;;;;5012502;28;19916;-79
2022/12/21 01:02:32;;;;;;;;;;;6.70;99.90;;;;;;5011886;28;20441;-79
2022/12/21 01:05:00;;;;;;;;;;;6.70;99.90;;;;;;5013251;28;19910;-80
2022/12/21 01:07:27;;;;;;;;;;;6.70;99.90;;;;;;5023214;28;19920;-84
2022/12/21 01:09:52;;;;;;;;;;;6.70;99.90;;;;;;5035463;28;19922;-78
2022/12/21 01:12:18;;;;;;;;;;;6.70;99.90;;;;;;5035287;28;19902;-79
2022/12/21 01:14:43;;;;;;;;;;;6.70;99.90;;;;;;5034474;28;19913;-78
2022/12/21 01:17:09;;;;;;;;;;;6.70;99.90;;;;;;5035351;28;19901;-80
2022/12/21 01:19:35;;;;;;;;;;;6.70;99.90;;;;;;5035415;28;19929;-79
2022/12/21 01:22:00;;;;;;;;;;;6.60;99.90;;;;;;5035200;28;19902;-79
2022/12/21 01:24:26;;;;;;;;;;;6.60;99.90;;;;;;5031931;28;19987;-79
2022/12/21 01:26:51;;;;;;;;;;;6.50;99.90;;;;;;5023280;28;20292;-78
2022/12/21 01:29:17;;;;;;;;;;;6.60;99.90;;;;;;5023875;28;19937;-78
2022/12/21 01:31:42;;;;;;;;;;;6.50;99.90;;;;;;5019857;28;19952;-78
2022/12/21 01:34:08;;;;;;;;;;;6.50;99.90;;;;;;5020303;28;19909;-78
2022/12/21 01:36:33;;;;;;;;;;;6.40;99.90;;;;;;5017947;28;19913;-78
2022/12/21 01:38:59;;;;;;;;;;;6.40;99.90;;;;;;5018450;28;19921;-78
2022/12/21 01:41:26;;;;;;;;;;;6.30;99.90;;;;;;5017199;28;19916;-85
2022/12/21 01:43:55;;;;;;;;;;;6.30;99.90;;;;;;5018686;28;20000;-78
2022/12/21 01:46:39;;;;;;;;;;;6.20;99.90;;;;;;5017706;28;19968;-78
2022/12/21 01:49:13;;;;;;;;;;;6.10;99.90;;;;;;5017997;28;19920;-78
2022/12/21 01:51:39;;;;;;;;;;;6.10;99.90;;;;;;5017223;28;19914;-79
2022/12/21 01:54:07;;;;;;;;;;;6.10;99.90;;;;;;5017120;28;19929;-78
2022/12/21 01:56:37;;;;;;;;;;;6.20;99.90;;;;;;5017211;28;20004;-78
2022/12/21 01:59:08;;;;;;;;;;;6.20;99.90;;;;;;5017658;28;19909;-78
2022/12/21 02:01:34;;;;;;;;;;;6.10;99.90;;;;;;5016349;28;19910;-79
2022/12/21 02:04:00;;;;;;;;;;;6.10;99.90;;;;;;5016615;28;20212;-78
2022/12/21 02:06:26;;;;;;;;;;;6.00;99.90;;;;;;5016070;28;19917;-84
2022/12/21 02:08:51;;;;;;;;;;;6.00;99.90;;;;;;5016037;28;19909;-79
2022/12/21 02:11:17;;;;;;;;;;;6.00;99.90;;;;;;5016442;28;20003;-78
2022/12/21 02:13:42;;;;;;;;;;;6.00;99.90;;;;;;5015654;28;20335;-78
2022/12/21 02:16:29;;;;;;;;;;;6.00;99.90;;;;;;5016058;28;20029;-78
2022/12/21 02:19:00;;;;;;;;;;;5.90;99.90;;;;;;5016820;28;19964;-77
2022/12/21 02:21:27;;;;;;;;;;;6.00;99.90;;;;;;5015805;28;19909;-84
2022/12/21 02:24:08;;;;;;;;;;;6.00;99.90;;;;;;5015641;28;19971;-78
2022/12/21 02:26:45;;;;;;;;;;;5.90;99.90;;;;;;5015543;28;19924;-78
2022/12/21 02:29:10;;;;;;;;;;;5.90;99.90;;;;;;5015195;28;19909;-78
2022/12/21 02:31:44;;;;;;;;;;;5.90;99.90;;;;;;5015110;28;20005;-79
2022/12/21 02:34:22;;;;;;;;;;;5.90;99.90;;;;;;5014918;28;19913;-78
2022/12/21 02:36:51;;;;;;;;;;;5.90;99.90;;;;;;5015016;28;20560;-79
2022/12/21 02:39:35;;;;;;;;;;;5.80;99.90;;;;;;5015075;28;20350;-79
2022/12/21 02:44:12;;;;;;;;;;;5.80;99.90;;;;;;5015065;28;20247;-79
2022/12/21 02:44:58;;;;;;;;;;;5.80;99.90;;;;;;5014877;28;19917;-79
2022/12/21 02:47:36;;;;;;;;;;;5.90;99.90;;;;;;5014716;28;20013;-79
2022/12/21 02:50:05;;;;;;;;;;;5.80;99.90;;;;;;5015487;28;19937;-79
2022/12/21 02:52:49;;;;;;;;;;;5.80;99.90;;;;;;5014297;28;20026;-80
2022/12/21 02:55:14;;;;;;;;;;;5.80;99.90;;;;;;5014672;28;19996;-78
2022/12/21 02:57:41;;;;;;;;;;;5.90;99.90;;;;;;5014927;28;20003;-79
2022/12/21 03:00:09;;;;;;;;;;;5.90;99.90;;;;;;5015025;28;20362;-79
2022/12/21 03:02:37;;;;;;;;;;;5.80;99.90;;;;;;5013955;28;20371;-79
2022/12/21 03:05:12;;;;;;;;;;;5.90;99.90;;;;;;5014443;28;19909;-79
2022/12/21 03:07:40;;;;;;;;;;;5.80;99.90;;;;;;5014183;28;19945;-78
2022/12/21 03:10:11;;;;;;;;;;;5.90;99.90;;;;;;5014811;28;19910;-79
2022/12/21 03:13:04;;;;;;;;;;;5.80;99.90;;;;;;5014189;28;19910;-79
2022/12/21 03:15:36;;;;;;;;;;;5.90;99.90;;;;;;4998256;28;19910;-85
2022/12/21 03:18:13;;;;;;;;;;;5.90;99.90;;;;;;5014362;28;19910;-78
2022/12/21 03:20:39;;;;;;;;;;;6.00;99.90;;;;;;5012701;28;19928;-78
2022/12/21 03:23:11;;;;;;;;;;;6.00;99.90;;;;;;5014625;28;19909;-78
2022/12/21 03:26:14;;;;;;;;;;;6.00;99.90;;;;;;5013551;28;20390;-78
2022/12/21 03:28:42;;;;;;;;;;;6.00;99.90;;;;;;4972385;28;20298;-79
2022/12/21 03:31:13;;;;;;;;;;;6.00;99.90;;;;;;4972770;28;19962;-78
2022/12/21 03:33:41;;;;;;;;;;;6.00;99.90;;;;;;4982998;28;20397;-78
2022/12/21 03:36:14;;;;;;;;;;;6.00;99.90;;;;;;5013614;28;19910;-80
2022/12/21 03:38:46;;;;;;;;;;;6.00;99.90;;;;;;5013141;28;19929;-79
2022/12/21 03:41:38;;;;;;;;;;;6.10;99.90;;;;;;5013196;28;19909;-79
2022/12/21 03:44:05;;;;;;;;;;;6.10;99.90;;;;;;5009795;28;20257;-79
2022/12/21 03:46:34;;;;;;;;;;;6.10;99.90;;;;;;5013164;28;19918;-83
2022/12/21 03:49:02;;;;;;;;;;;6.10;99.90;;;;;;5013325;28;19964;-79
2022/12/21 03:51:49;;;;;;;;;;;6.10;99.90;;;;;;5013843;28;19914;-78
2022/12/21 03:54:37;;;;;;;;;;;6.10;99.90;;;;;;5011894;28;20294;-79
2022/12/21 03:57:04;;;;;;;;;;;6.00;99.90;;;;;;5013109;28;20412;-79
2022/12/21 03:59:30;;;;;;;;;;;6.00;99.90;;;;;;5013571;28;19957;-79
2022/12/21 04:02:10;;;;;;;;;;;6.00;99.90;;;;;;5012641;28;19909;-79
2022/12/21 04:04:54;;;;;;;;;;;5.90;99.90;;;;;;5012381;28;19960;-79
2022/12/21 04:07:24;;;;;;;;;;;6.00;99.90;;;;;;5012535;28;20008;-78
2022/12/21 04:09:55;;;;;;;;;;;6.00;99.90;;;;;;5012673;28;19917;-78
2022/12/21 04:12:39;;;;;;;;;;;6.00;99.90;;;;;;5011163;28;19997;-78
2022/12/21 04:15:18;;;;;;;;;;;6.00;99.90;;;;;;5012876;28;19920;-78
2022/12/21 04:17:45;;;;;;;;;;;5.90;99.90;;;;;;5012779;28;20446;-79
2022/12/21 04:20:12;;;;;;;;;;;5.90;99.90;;;;;;5012882;28;19910;-79
2022/12/21 04:28:16;;;;;;;;;;;6.00;99.90;;;;;;5012890;28;19916;-79
2022/12/21 04:30:43;;;;;;;;;;;6.00;99.90;;;;;;5010915;28;19916;-79
2022/12/21 04:33:10;;;;;;;;;;;6.00;99.90;;;;;;5012877;28;19964;-79
2022/12/21 04:35:36;;;;;;;;;;;5.90;99.90;;;;;;5012872;28;19910;-83
2022/12/21 04:38:02;;;;;;;;;;;6.00;99.90;;;;;;5012631;28;20355;-79
2022/12/21 04:40:28;;;;;;;;;;;6.00;99.90;;;;;;5010850;28;20339;-79
2022/12/21 04:42:54;;;;;;;;;;;5.90;99.90;;;;;;5012382;28;19920;-79
2022/12/21 04:45:20;;;;;;;;;;;5.90;99.90;;;;;;5012767;28;19958;-79
2022/12/21 04:47:45;;;;;;;;;;;6.00;99.90;;;;;;5012808;28;20231;-79
2022/12/21 04:50:11;;;;;;;;;;;5.90;99.90;;;;;;5012668;28;19918;-78
2022/12/21 04:52:36;;;;;;;;;;;5.90;99.90;;;;;;5012542;28;20322;-82
2022/12/21 04:55:02;;;;;;;;;;;6.00;99.90;;;;;;5012234;28;20239;-78
2022/12/21 04:57:28;;;;;;;;;;;6.00;99.90;;;;;;5011572;28;20425;-79
2022/12/21 04:59:54;;;;;;;;;;;6.00;99.90;;;;;;5012269;28;19913;-78
2022/12/21 05:02:20;;;;;;;;;;;6.00;99.90;;;;;;5012659;28;20270;-78
2022/12/21 05:04:45;;;;;;;;;;;6.00;99.90;;;;;;5012397;28;19909;-78
2022/12/21 05:07:11;;;;;;;;;;;6.00;99.90;;;;;;5012520;28;20034;-79
2022/12/21 05:09:36;;;;;;;;;;;5.90;99.90;;;;;;5012547;28;19909;-79
2022/12/21 05:12:02;;;;;;;;;;;6.00;99.90;;;;;;5012325;28;20016;-79
2022/12/21 05:14:27;;;;;;;;;;;6.00;99.90;;;;;;5011929;28;20283;-78
2022/12/21 05:16:53;;;;;;;;;;;6.10;99.90;;;;;;5012422;28;20370;-79
2022/12/21 05:19:19;;;;;;;;;;;6.10;99.90;;;;;;5012229;28;19916;-79
2022/12/21 05:21:45;;;;;;;;;;;6.10;99.90;;;;;;5012104;28;19914;-79
2022/12/21 05:24:11;;;;;;;;;;;6.10;99.90;;;;;;5012043;28;20263;-79
2022/12/21 05:26:36;;;;;;;;;;;6.10;99.90;;;;;;5012386;28;19917;-78
2022/12/21 05:29:02;;;;;;;;;;;6.10;99.90;;;;;;5012819;28;19909;-79
2022/12/21 05:31:28;;;;;;;;;;;6.10;99.90;;;;;;5019931;28;19909;-78
2022/12/21 05:33:53;;;;;;;;;;;6.10;99.90;;;;;;5016502;28;19910;-79
2022/12/21 05:36:19;;;;;;;;;;;6.20;99.90;;;;;;5013724;28;20260;-79
2022/12/21 05:38:45;;;;;;;;;;;6.20;99.90;;;;;;5011601;28;20057;-79
2022/12/21 05:41:11;;;;;;;;;;;6.20;99.90;;;;;;5012511;28;19910;-79
2022/12/21 05:43:36;;;;;;;;;;;6.10;99.90;;;;;;5013011;28;20271;-77
2022/12/21 05:46:03;;;;;;;;;;;6.10;99.90;;;;;;5033018;28;19913;-80
2022/12/21 05:48:29;;;;;;;;;;;6.10;99.90;;;;;;5034307;28;19902;-79
2022/12/21 05:50:55;;;;;;;;;;;6.10;99.90;;;;;;5032175;28;19952;-80
2022/12/21 05:53:20;;;;;;;;;;;6.20;99.90;;;;;;5033573;28;19983;-79
2022/12/21 05:55:46;;;;;;;;;;;6.20;99.90;;;;;;5033968;28;19944;-79
2022/12/21 05:58:12;;;;;;;;;;;6.10;99.90;;;;;;5023363;28;20279;-79
2022/12/21 06:00:38;;;;;;;;;;;6.10;99.90;;;;;;5011378;28;19910;-79
2022/12/21 06:03:04;;;;;;;;;;;6.10;99.90;;;;;;5011317;28;19956;-79
2022/12/21 06:05:30;;;;;;;;;;;6.00;99.90;;;;;;5011222;28;19920;-78
2022/12/21 06:07:55;;;;;;;;;;;6.00;99.90;;;;;;5010916;28;19981;-78
2022/12/21 06:10:21;;;;;;;;;;;6.00;99.90;;;;;;5015108;28;19971;-79
2022/12/21 06:12:46;;;;;;;;;;;6.00;99.90;;;;;;5014397;28;19984;-79
2022/12/21 06:15:12;;;;;;;;;;;6.00;99.90;;;;;;5015203;28;19910;-79
2022/12/21 06:17:38;;;;;;;;;;;6.00;99.90;;;;;;5015360;28;19909;-79
2022/12/21 06:20:04;;;;;;;;;;;6.00;99.90;;;;;;5014829;28;19909;-78
2022/12/21 06:22:31;;;;;;;;;;;6.00;99.90;;;;;;5014941;28;20486;-78
2022/12/21 06:24:57;;;;;;;;;;;6.10;99.90;;;;;;5014359;28;19947;-79
2022/12/21 06:27:23;;;;;;;;;;;6.10;99.90;;;;;;5014891;28;19990;-79
2022/12/21 06:29:48;;;;;;;;;;;6.10;99.90;;;;;;5014223;28;19924;-79
2022/12/21 06:32:14;;;;;;;;;;;6.10;99.90;;;;;;5014939;28;19913;-78
2022/12/21 06:34:39;;;;;;;;;;;6.20;99.90;;;;;;5014535;28;20294;-81
2022/12/21 06:37:05;;;;;;;;;;;6.30;99.90;;;;;;5014192;28;19916;-78
2022/12/21 06:39:30;;;;;;;;;;;6.30;99.90;;;;;;5012695;28;19992;-79
2022/12/21 06:41:56;;;;;;;;;;;6.40;99.90;;;;;;5014135;28;19932;-78
2022/12/21 06:44:21;;;;;;;;;;;6.40;99.90;;;;;;5014024;28;19910;-79
2022/12/21 06:46:47;;;;;;;;;;;6.40;99.90;;;;;;5013648;28;19964;-79
2022/12/21 06:49:13;;;;;;;;;;;6.40;99.90;;;;;;5013227;28;19974;-78
2022/12/21 06:51:38;;;;;;;;;;;6.40;99.90;;;;;;5014448;28;19946;-79
2022/12/21 06:54:04;;;;;;;;;;;6.40;99.90;;;;;;5014070;28;20634;-79
2022/12/21 06:56:30;;;;;;;;;;;6.40;99.90;;;;;;5014615;28;19917;-79
2022/12/21 06:58:56;;;;;;;;;;;6.40;99.90;;;;;;5012670;28;19921;-79
2022/12/21 07:01:26;;;;;;;;;;;6.40;99.90;;;;;;5014465;28;19909;-78
2022/12/21 07:03:52;;;;;;;;;;;6.40;99.90;;;;;;5012756;28;19916;-79
2022/12/21 07:06:18;;;;;;;;;;;6.50;99.90;;;;;;5014460;28;19918;-79
2022/12/21 07:08:44;;;;;;;;;;;6.50;99.90;;;;;;5014287;28;19916;-78
2022/12/21 07:11:13;;;;;;;;;;;6.50;99.90;;;;;;5013768;28;19909;-80
2022/12/21 07:13:40;;;;;;;;;;;6.40;99.90;;;;;;5014095;28;20351;-81
2022/12/21 07:16:06;;;;;;;;;;;6.40;99.90;;;;;;5013687;28;19909;-80
2022/12/21 07:18:34;;;;;;;;;;;6.40;99.90;;;;;;5012706;28;20016;-79
2022/12/21 07:21:02;;;;;;;;;;;6.40;99.90;;;;;;5014282;28;20456;-79
2022/12/21 07:23:28;;;;;;;;;;;6.50;99.90;;;;;;5013928;28;19933;-79
2022/12/21 07:25:54;;;;;;;;;;;6.50;99.90;;;;;;5013676;28;20084;-79
2022/12/21 07:28:20;;;;;;;;;;;6.50;99.90;;;;;;5013912;28;20010;-79
2022/12/21 07:30:48;;;;;;;;;;;6.40;99.90;;;;;;5013720;28;19914;-79
2022/12/21 07:33:16;;;;;;;;;;;6.40;99.90;;;;;;5014056;28;19910;-78
2022/12/21 07:35:42;;;;;;;;;;;6.40;99.90;;;;;;5013345;28;20339;-80
2022/12/21 07:38:07;;;;;;;;;;;6.40;99.90;;;;;;5012800;28;19905;-78
2022/12/21 07:40:33;;;;;;;;;;;6.50;99.90;;;;;;5013418;28;19910;-78
2022/12/21 07:42:59;;;;;;;;;;;6.50;99.90;;;;;;5011464;28;20390;-78
2022/12/21 07:45:24;;;;;;;;;;;6.50;99.90;;;;;;5013100;28;19913;-79
2022/12/21 07:47:50;;;;;;;;;;;6.50;99.90;;;;;;5012722;28;19922;-79
2022/12/21 07:50:16;;;;;;;;;;;6.50;99.90;;;;;;5013204;28;19910;-78
2022/12/21 07:52:41;;;;;;;;;;;6.60;99.90;;;;;;5012556;28;20002;-80
2022/12/21 07:55:07;;;;;;;;;;;6.60;99.90;;;;;;5012705;28;19993;-78
2022/12/21 07:57:33;;;;;;;;;;;6.60;99.90;;;;;;5012681;28;19997;-79
2022/12/21 07:59:59;;;;;;;;;;;6.70;99.90;;;;;;5011618;28;19948;-80
2022/12/21 08:02:24;;;;;;;;;;;6.70;99.90;;;;;;5012871;28;19928;-80
2022/12/21 08:04:50;;;;;;;;;;;6.70;99.90;;;;;;5012467;28;19996;-83
2022/12/21 08:07:15;;;;;;;;;;;6.70;99.90;;;;;;5012381;28;19967;-79
2022/12/21 08:09:41;;;;;;;;;;;6.70;99.90;;;;;;5012406;28;19909;-79
2022/12/21 08:12:06;;;;;;;;;;;6.70;99.90;;;;;;5012786;28;19910;-79
2022/12/21 08:14:32;;;;;;;;;;;6.60;99.90;;;;;;5011137;28;20422;-79
2022/12/21 08:16:57;;;;;;;;;;;6.60;99.90;;;;;;5011668;28;19909;-79
2022/12/21 08:19:23;;;;;;;;;;;6.60;99.90;;;;;;5012893;28;19910;-78
2022/12/21 08:21:48;;;;;;;;;;;6.60;99.90;;;;;;5012245;28;19909;-78
2022/12/21 08:24:14;;;;;;;;;;;6.50;99.90;;;;;;5011846;28;20293;-79
2022/12/21 08:26:40;;;;;;;;;;;6.50;99.90;;;;;;5012579;28;19917;-79
2022/12/21 08:29:05;;;;;;;;;;;6.50;99.90;;;;;;5012027;28;19916;-80
2022/12/21 08:31:31;;;;;;;;;;;6.50;99.90;;;;;;5012347;28;20009;-79
2022/12/21 08:33:56;;;;;;;;;;;6.60;99.90;;;;;;5011482;28;19964;-79
2022/12/21 08:36:22;;;;;;;;;;;6.60;99.90;;;;;;5012597;28;20351;-79
2022/12/21 08:38:48;;;;;;;;;;;6.60;99.90;;;;;;5012052;28;19932;-79
2022/12/21 08:41:15;;;;;;;;;;;6.60;99.90;;;;;;5011680;28;20007;-79
2022/12/21 08:43:40;;;;;;;;;;;6.60;99.90;;;;;;5010690;28;19909;-79
2022/12/21 08:46:06;;;;;;;;;;;6.60;99.90;;;;;;5011269;28;19963;-80
2022/12/21 08:48:33;;;;;;;;;;;6.60;99.90;;;;;;5012128;28;19917;-79
2022/12/21 08:50:58;;;;;;;;;;;6.50;99.90;;;;;;5012014;28;19916;-80
2022/12/21 08:53:24;;;;;;;;;;;6.60;99.90;;;;;;5011962;28;19909;-79
2022/12/21 08:55:50;;;;;;;;;;;6.60;99.90;;;;;;5010577;28;19910;-78
2022/12/21 08:58:16;;;;;;;;;;;6.60;99.90;;;;;;5011673;28;20028;-79
2022/12/21 09:00:44;;;;;;;;;;;6.60;99.90;;;;;;5011811;28;19914;-80
2022/12/21 09:03:10;;;;;;;;;;;6.60;99.90;;;;;;5011626;28;20016;-79
2022/12/21 09:05:36;;;;;;;;;;;6.50;99.90;;;;;;5011924;28;19952;-79
2022/12/21 09:08:02;;;;;;;;;;;6.60;99.90;;;;;;5010643;28;19909;-79
2022/12/21 09:10:28;;;;;;;;;;;6.50;99.90;;;;;;5012018;28;19940;-78
2022/12/21 09:12:55;;;;;;;;;;;6.50;99.90;;;;;;5010556;28;20310;-84
2022/12/21 09:15:21;;;;;;;;;;;6.40;99.90;;;;;;5010509;28;19909;-76
2022/12/21 09:17:47;;;;;;;;;;;6.50;99.90;;;;;;5010207;28;20323;-77
2022/12/21 09:20:13;;;;;;;;;;;6.40;99.90;;;;;;5011726;28;19910;-77
2022/12/21 09:22:39;;;;;;;;;;;6.40;99.90;;;;;;5010239;28;19979;-78
2022/12/21 09:25:05;;;;;;;;;;;6.40;99.90;;;;;;5010899;28;19921;-78
2022/12/21 09:27:31;;;;;;;;;;;6.40;99.90;;;;;;5011812;28;19917;-78
2022/12/21 09:29:57;;;;;;;;;;;6.40;99.90;;;;;;5011308;28;19909;-84
2022/12/21 09:32:22;;;;;;;;;;;6.40;99.90;;;;;;5011639;28;19909;-78
2022/12/21 09:34:48;;;;;;;;;;;6.50;99.90;;;;;;5011673;28;20381;-78
2022/12/21 09:37:13;;;;;;;;;;;6.50;99.90;;;;;;5011550;28;20267;-78
2022/12/21 09:39:39;;;;;;;;;;;6.60;99.90;;;;;;5011556;28;19922;-79
2022/12/21 09:42:20;;;;;;;;;;;6.60;99.90;;;;;;5010049;28;19967;-79
2022/12/21 09:44:49;;;;;;;;;;;6.60;99.90;;;;;;5013728;28;20327;-79
2022/12/21 09:47:34;;;;;;;;;;;6.50;99.90;;;;;;5015511;28;19921;-79
2022/12/21 09:50:02;;;;;;;;;;;6.50;99.90;;;;;;5015257;28;19909;-80
2022/12/21 09:52:31;;;;;;;;;;;6.60;99.90;;;;;;5015583;28;20284;-80
2022/12/21 09:55:12;;;;;;;;;;;6.60;99.90;;;;;;5015582;28;19959;-83
2022/12/21 09:57:37;;;;;;;;;;;6.60;99.90;;;;;;5015536;28;19949;-79
2022/12/21 10:00:12;;;;;;;;;;;6.60;99.90;;;;;;5015312;28;20271;-83
2022/12/21 10:02:46;;;;;;;;;;;6.60;99.90;;;;;;5015436;28;19996;-80
2022/12/21 10:05:30;;;;;;;;;;;6.70;99.90;;;;;;5015769;28;19909;-79
2022/12/21 10:08:14;;;;;;;;;;;6.70;99.90;;;;;;5015359;28;20019;-79
2022/12/21 10:10:42;;;;;;;;;;;6.80;99.90;;;;;;5015397;28;19916;-80
2022/12/21 10:13:27;;;;;;;;;;;6.90;99.90;;;;;;5015486;28;19916;-79
2022/12/21 10:16:00;;;;;;;;;;;6.90;99.90;;;;;;5014023;28;19910;-79
2022/12/21 10:18:35;;;;;;;;;;;6.90;99.90;;;;;;5016009;28;19952;-79
2022/12/21 10:21:13;;;;;;;;;;;6.90;99.90;;;;;;5015873;28;20000;-79
2022/12/21 10:23:43;;;;;;;;;;;7.00;99.90;;;;;;5015398;28;20008;-79
2022/12/21 10:26:12;;;;;;;;;;;7.00;99.90;;;;;;5015684;28;19921;-79
2022/12/21 10:28:46;;;;;;;;;;;7.00;99.90;;;;;;5015765;28;19917;-79
2022/12/21 10:31:18;;;;;;;;;;;7.00;99.90;;;;;;5015329;28;19955;-79
2022/12/21 10:33:46;;;;;;;;;;;7.00;99.90;;;;;;5015268;28;20018;-78
2022/12/21 10:36:15;;;;;;;;;;;7.10;99.90;;;;;;5015340;28;19996;-80
2022/12/21 10:38:41;;;;;;;;;;;7.10;99.90;;;;;;5015208;28;19925;-79
2022/12/21 10:41:17;;;;;;;;;;;7.20;99.90;;;;;;5015146;28;20051;-79
2022/12/21 10:43:47;;;;;;;;;;;7.20;99.90;;;;;;5017688;28;19910;-79
2022/12/21 10:46:12;;;;;;;;;;;7.20;99.90;;;;;;5018118;28;19918;-79
2022/12/21 10:48:38;;;;;;;;;;;7.20;99.90;;;;;;5017773;28;19921;-79
2022/12/21 10:51:24;;;;;;;;;;;7.30;99.90;;;;;;5017662;28;19910;-79
2022/12/21 10:53:56;;;;;;;;;;;7.30;99.90;;;;;;5010042;28;19910;-79
2022/12/21 10:56:23;;;;;;;;;;;7.30;99.90;;;;;;5016355;28;19929;-79
2022/12/21 10:58:52;;;;;;;;;;;7.40;99.90;;;;;;5019291;28;19928;-79
2022/12/21 11:01:23;;;;;;;;;;;7.40;99.90;;;;;;5027953;28;19948;-80
2022/12/21 11:04:07;;;;;;;;;;;7.40;99.90;;;;;;5037304;28;19901;-80
2022/12/21 11:06:33;;;;;;;;;;;7.40;99.90;;;;;;5036806;28;19910;-80
2022/12/21 11:08:59;;;;;;;;;;;7.50;99.90;;;;;;5036191;28;19901;-87
2022/12/21 11:11:37;;;;;;;;;;;7.50;99.90;;;;;;5035936;28;19913;-87
2022/12/21 11:14:13;;;;;;;;;;;7.50;99.90;;;;;;5034870;28;20036;-86
2022/12/21 11:16:39;;;;;;;;;;;7.50;99.90;;;;;;5037327;28;19902;-79
2022/12/21 11:19:09;;;;;;;;;;;7.60;99.90;;;;;;5036616;28;19909;-79
2022/12/21 11:21:40;;;;;;;;;;;7.60;99.90;;;;;;5034663;28;19917;-82
2022/12/21 11:24:11;;;;;;;;;;;7.50;99.90;;;;;;5015000;28;20052;-79
2022/12/21 11:26:42;;;;;;;;;;;7.60;99.90;;;;;;5018756;28;19921;-79
2022/12/21 11:29:14;;;;;;;;;;;7.60;99.90;;;;;;5021546;28;19910;-79
2022/12/21 11:31:40;;;;;;;;;;;7.60;99.90;;;;;;5016591;28;19964;-79
2022/12/21 11:34:16;;;;;;;;;;;7.60;99.90;;;;;;5016384;28;19917;-79
2022/12/21 11:37:02;;;;;;;;;;;7.60;99.90;;;;;;5016071;28;19913;-78
2022/12/21 11:39:27;;;;;;;;;;;7.60;99.90;;;;;;5014574;28;20232;-79
2022/12/21 11:41:54;;;;;;;;;;;7.60;99.90;;;;;;5014909;28;19910;-79
2022/12/21 11:44:22;;;;;;;;;;;7.70;99.90;;;;;;5015106;28;19948;-79
2022/12/21 11:47:10;;;;;;;;;;;7.70;99.90;;;;;;5015694;28;19921;-79
2022/12/21 11:49:44;;;;;;;;;;;7.80;99.90;;;;;;5016024;28;19933;-79
2022/12/21 11:52:10;;;;;;;;;;;7.80;99.90;;;;;;5015076;28;20389;-79
2022/12/21 11:54:52;;;;;;;;;;;7.90;99.90;;;;;;5015799;28;19909;-79
2022/12/21 11:57:17;;;;;;;;;;;7.90;99.90;;;;;;5014234;28;19984;-79
2022/12/21 11:59:58;;;;;;;;;;;7.90;99.90;;;;;;5014827;28;20366;-80
2022/12/21 12:02:26;;;;;;;;;;;7.90;99.90;;;;;;5014753;28;19910;-78
2022/12/21 12:05:01;;;;;;;;;;;7.90;99.90;;;;;;5015118;28;19910;-78
2022/12/21 12:07:26;;;;;;;;;;;7.90;99.90;;;;;;5014311;28;19917;-79
2022/12/21 12:09:52;;;;;;;;;;;7.90;99.90;;;;;;5014119;28;19910;-80
2022/12/21 12:12:32;;;;;;;;;;;8.00;99.90;;;;;;5013429;28;20004;-78
2022/12/21 12:15:21;;;;;;;;;;;8.00;99.90;;;;;;5014202;28;19921;-79
2022/12/21 12:17:46;;;;;;;;;;;8.00;99.90;;;;;;5008502;28;19910;-80
2022/12/21 12:20:27;;;;;;;;;;;8.00;99.90;;;;;;5013809;28;19913;-79
2022/12/21 12:23:10;;;;;;;;;;;8.00;99.90;;;;;;5012406;28;19956;-80
2022/12/21 12:25:54;;;;;;;;;;;8.10;99.90;;;;;;5013566;28;20376;-79
2022/12/21 12:28:20;;;;;;;;;;;8.10;99.90;;;;;;5013047;28;20505;-78
2022/12/21 12:30:59;;;;;;;;;;;8.10;99.90;;;;;;5013148;28;19910;-79
2022/12/21 12:33:43;;;;;;;;;;;8.10;99.90;;;;;;5013839;28;19914;-80
2022/12/21 12:36:14;;;;;;;;;;;8.10;99.90;;;;;;5013058;28;19909;-80
2022/12/21 12:38:58;;;;;;;;;;;8.10;99.90;;;;;;5013665;28;19929;-80
2022/12/21 12:41:29;;;;;;;;;;;8.20;99.90;;;;;;5012627;28;19932;-81
2022/12/21 12:44:03;;;;;;;;;;;8.20;99.90;;;;;;5013424;28;19913;-79
2022/12/21 12:46:47;;;;;;;;;;;8.30;99.90;;;;;;5013159;28;19917;-79
2022/12/21 12:49:31;;;;;;;;;;;8.20;99.90;;;;;;5012958;28;20382;-79
2022/12/21 12:52:15;;;;;;;;;;;8.20;99.90;;;;;;5013103;28;19909;-79
2022/12/21 12:54:51;;;;;;;;;;;8.20;99.90;;;;;;5012603;28;19909;-79
2022/12/21 12:57:19;;;;;;;;;;;8.30;99.90;;;;;;5011999;28;20278;-79
2022/12/21 12:59:56;;;;;;;;;;;8.30;99.90;;;;;;5012998;28;20064;-77
2022/12/21 13:02:31;;;;;;;;;;;8.30;99.90;;;;;;5012632;28;20393;-78
2022/12/21 13:04:57;;;;;;;;;;;8.40;99.90;;;;;;5012918;28;19917;-78
2022/12/21 13:07:29;;;;;;;;;;;8.40;99.90;;;;;;5011862;28;19917;-77
2022/12/21 13:10:10;;;;;;;;;;;8.40;99.90;;;;;;5012662;28;20008;-78
2022/12/21 13:12:36;;;;;;;;;;;8.40;99.90;;;;;;5012355;28;19913;-77
2022/12/21 13:15:05;;;;;;;;;;;8.40;99.90;;;;;;5012593;28;20327;-83
2022/12/21 13:17:53;;;;;;;;;;;8.30;99.90;;;;;;5011242;28;19949;-78
2022/12/21 13:20:20;;;;;;;;;;;8.40;99.90;;;;;;5011510;28;19974;-78
2022/12/21 13:23:05;;;;;;;;;;;8.40;99.90;;;;;;5012804;28;19909;-78
2022/12/21 13:25:46;;;;;;;;;;;8.40;99.90;;;;;;4991243;28;19910;-78
2022/12/21 13:28:35;;;;;;;;;;;8.50;99.90;;;;;;5012437;28;20001;-78
2022/12/21 13:31:02;;;;;;;;;;;8.50;99.90;;;;;;5012845;28;19909;-79
2022/12/21 13:33:29;;;;;;;;;;;8.40;99.90;;;;;;5012344;28;19917;-79
2022/12/21 13:36:06;;;;;;;;;;;8.40;99.90;;;;;;5012635;28;19920;-78
2022/12/21 13:38:36;;;;;;;;;;;8.50;99.90;;;;;;5012510;28;19953;-78
2022/12/21 13:41:07;;;;;;;;;;;8.40;99.90;;;;;;5012293;28;19985;-85
2022/12/21 13:43:32;;;;;;;;;;;8.50;99.90;;;;;;5013801;28;19916;-78
2022/12/21 13:46:01;;;;;;;;;;;8.40;99.90;;;;;;5013258;28;19922;-78
2022/12/21 13:48:29;;;;;;;;;;;8.40;99.90;;;;;;5012195;28;20001;-78
2022/12/21 13:51:14;;;;;;;;;;;8.50;99.90;;;;;;5012612;28;20031;-79
2022/12/21 13:53:40;;;;;;;;;;;8.40;99.90;;;;;;5011992;28;20012;-78
2022/12/21 13:56:08;;;;;;;;;;;8.40;99.90;;;;;;5012723;28;20387;-79
2022/12/21 13:58:43;;;;;;;;;;;8.50;99.90;;;;;;5012859;28;19980;-78
2022/12/21 14:01:29;;;;;;;;;;;8.50;99.90;;;;;;5012171;28;19956;-77
2022/12/21 14:03:59;;;;;;;;;;;8.50;99.90;;;;;;5012285;28;19920;-78
2022/12/21 14:06:43;;;;;;;;;;;8.40;99.90;;;;;;5011437;28;19931;-77
2022/12/21 14:09:17;;;;;;;;;;;8.40;99.90;;;;;;5011481;28;19909;-78
2022/12/21 14:11:42;;;;;;;;;;;8.30;99.90;;;;;;5012767;28;19909;-77
2022/12/21 14:14:20;;;;;;;;;;;8.30;99.90;;;;;;5012259;28;19965;-78
2022/12/21 14:16:45;;;;;;;;;;;8.30;99.90;;;;;;5011877;28;19914;-78
2022/12/21 14:19:21;;;;;;;;;;;8.30;99.90;;;;;;5010568;28;19963;-78
2022/12/21 14:21:47;;;;;;;;;;;8.30;99.90;;;;;;5012267;28;19914;-77
2022/12/21 14:24:26;;;;;;;;;;;8.30;99.90;;;;;;5011457;28;20000;-78
2022/12/21 14:26:52;;;;;;;;;;;8.40;99.90;;;;;;5012054;28;20371;-78
2022/12/21 14:29:17;;;;;;;;;;;8.40;99.90;;;;;;5011778;28;19917;-77
2022/12/21 14:31:47;;;;;;;;;;;8.20;99.90;;;;;;5013659;28;19914;-77
2022/12/21 14:34:13;;;;;;;;;;;8.30;99.90;;;;;;5015105;28;20024;-78
2022/12/21 14:36:59;;;;;;;;;;;8.30;99.90;;;;;;5013503;28;20343;-77
2022/12/21 14:39:33;;;;;;;;;;;8.20;99.90;;;;;;5014678;28;19976;-78
2022/12/21 14:42:17;;;;;;;;;;;8.20;99.90;;;;;;5015151;28;19931;-78
2022/12/21 14:45:01;;;;;;;;;;;8.20;99.90;;;;;;5015097;28;19920;-78
2022/12/21 14:47:26;;;;;;;;;;;8.30;99.90;;;;;;5014458;28;19978;-79
2022/12/21 14:49:52;;;;;;;;;;;8.30;99.90;;;;;;5014714;28;20008;-79
2022/12/21 14:52:17;;;;;;;;;;;8.30;99.90;;;;;;5014242;28;19916;-79